Tiempo atmosférico en la estación meteorológica de Osuna, Sevilla (255 m.)



Fecha
DESCASC
Temp. máxima en grados centígrados (hora)
DESCASC
Temp. mínima en grados centígrados (hora)
DESCASC
Temp. media en grados centígrados
DESCASC
Racha de viento máxima en m/sg (hora)
DESCASC
Velocidad máxima media en intervalos de 10 minutos(hora)
DESCASC
Precipitaciones diarias en mm
DESCASC
Precipitaciones de 00:00 a 06:00 en mm
DESCASC
Precipitaciones de 06:00 a 12:00 en mm
DESCASC
Precipitaciones de 12:00 a 18:00 en mm
DESCASC
Precipitaciones de 18:00 a 24:00 en mm
DESCASC
14-12-2019 14.1 (14:50) 11.2 (23:50) 12.7 4.72 (15:40) 2.5 (16:00) 0 0 0 0 0
13-12-2019 15.6 (16:00) 12.3 (00:10) 14 13.61 (01:30) 9.44 (01:50) 0 0 0 0 0
12-12-2019 13.8 (14:50) 6.1 (05:20) 10 11.67 (15:50) 8.06 (18:30) 0 0 0 0 0
11-12-2019 15.4 (14:50) 8.7 (00:00) 12 8.33 (15:50) 5.56 (15:40) 0 0 0 0 0
10-12-2019 15.9 (16:40) 6 (09:10) 10.9 5.83 (02:00) 3.33 (02:00) 0 0 0 0 0
09-12-2019 15.2 (14:10) 12.1 (00:00) 13.7 3.33 (14:30) 1.94 (19:40) 0 0 0 0 0
08-12-2019 17.1 (15:20) 9.1 (00:00) 13.1 4.44 (15:50) 2.78 (15:50) 0 0 0 0 0
07-12-2019 17.5 (16:20) 10.1 (00:00) 13.8 5.56 (07:20) 3.61 (07:10) 0 0 0 0 0
06-12-2019 17.2 (15:00) 8.4 (00:00) 12.8 5.83 (23:50) 3.33 (21:40) 0 0 0 0 0
05-12-2019 15.6 (15:50) 7.4 (00:00) 11.5 6.11 (14:40) 3.61 (07:50) 0 0 0 0 0
04-12-2019 14.3 (14:50) 8.6 (22:30) 11.5 6.94 (17:10) 4.72 (17:10) 1.8 1.8 0 0 0
03-12-2019 16 (16:20) 7.9 (00:00) 12 6.11 (11:50) 3.33 (11:50) 0 0 0 0 0
02-12-2019 14.5 (15:40) 9.8 (00:00) 12.2 6.67 (11:00) 3.89 (11:00) 4.2 3.4 0.6 0.2 0
01-12-2019 15.2 (12:50) 10.6 (00:00) 12.9 8.61 (12:50) 5.83 (13:10) 10.2 0.8 0.2 7.6 1.6
30-11-2019 18.1 (16:10) 9.2 (00:00) 13.7 7.78 (16:50) 4.72 (17:00) 0 0 0 0 0
29-11-2019 18.3 (15:30) 10.3 (00:00) 14.3 5.28 (15:40) 2.78 (08:20) 0 0 0 0 0
28-11-2019 17.7 (15:40) 12 (02:30) 14.9 4.72 (06:20) 3.33 (06:20) 0 0 0 0 0
27-11-2019 17.1 (14:50) 12.8 (00:00) 15 9.72 (03:00) 5.83 (03:00) 1 1 0 0 0
26-11-2019 18.5 (14:10) 13.6 (00:00) 16.1 8.89 (23:50) 5.28 (22:40) 0.4 0 0 0.4 0
25-11-2019 17.1 (13:50) 10.9 (00:30) 14 11.11 (10:50) 8.06 (14:20) 0.6 0 0.2 0.2 0.2
24-11-2019 14.7 (16:30) 7.8 (00:00) 11.3 6.67 (15:10) 4.17 (15:50) 0 0 0 0 0
23-11-2019 14.7 (16:00) 9.6 (00:00) 12.2 16.94 (02:50) 10 (04:10) 1.6 0.4 1.2 0 0
22-11-2019 17 (15:40) 13.1 (00:00) 15.1 27.5 (19:10) 13.89 (19:10) 25.2 3.2 12.8 4.2 5
21-11-2019 16.6 (14:50) 10.7 (00:00) 13.7 10.28 (15:00) 5.83 (15:00) 11.8 5.6 0.4 5.6 0.2
20-11-2019 12.4 (15:50) 8.4 (07:40) 10.4 12.22 (17:20) 4.72 (17:20) 3.2 0 0.8 1.2 1.2
19-11-2019 14.5 (15:50) 7.8 (00:00) 11.2 2.78 (14:30) 2.22 (02:10) 0 0 0 0 0
18-11-2019 13.9 (03:00) 7.2 (00:00) 10.5 18.61 (03:10) 13.61 (03:10) 10 10 0 0 0
17-11-2019 15 (16:30) 6.8 (00:00) 10.9 13.33 (23:59) 8.89 (15:30) 0.4 0 0 0 0.4
16-11-2019 12.9 (15:50) 4.2 (00:00) 8.5 6.11 (17:00) 3.61 (15:50) 0 0 0 0 0

Gráficas

Temp. máximas Temp. mínimas Temp. medias Precipitaciones Rachas de viento máximas Velocidades máximas media en intervalos de 10 minutos

Datos horarios

Fecha y hora oficial Temperatura (ºC) Velocidad del viento (km/h) Dirección del viento Racha (km/h) Dirección de racha Precipitación (mm) Presión (hPa) Tendencia (hPa) Humedad (%)
2019-12-15 23:00:00 11.7 6 Sudeste 9 Sudeste 0 -- -- 71
2019-12-15 22:00:00 11.6 5 Sudeste 9 Sudeste 0 -- -- 71
2019-12-15 21:00:00 12 6 Sudeste 9 Sudeste 0 -- -- 70
2019-12-15 20:00:00 12.8 4 Sudeste 7 Este 0 -- -- 66
2019-12-15 19:00:00 13.5 4 Este 9 Este 0 -- -- 62
2019-12-15 18:00:00 14.1 3 Nordeste 6 Nordeste 0 -- -- 62
2019-12-15 17:00:00 15.2 3 Nordeste 8 Este 0 -- -- 57
2019-12-15 16:00:00 15.7 6 Nordeste 18 Norte 0 -- -- 54
2019-12-15 15:00:00 15.7 3 Nordeste 10 Norte 0 -- -- 54
2019-12-15 14:00:00 15.5 4 Noroeste 10 Oeste 0 -- -- 54
2019-12-15 13:00:00 15.4 4 Sudeste 9 Este 0 -- -- 56
2019-12-15 12:00:00 14.7 4 Este 11 Sudeste 0 -- -- 57
2019-12-15 11:00:00 13.2 8 Sudeste 14 Este 0 -- -- 67
2019-12-15 10:00:00 11.5 10 Sudeste 15 Sudeste 0 -- -- 73
2019-12-15 09:00:00 10 6 Sudeste 9 Sudeste 0 -- -- 79
2019-12-15 08:00:00 9.8 5 Sudeste 7 Sudeste 0 -- -- 78
2019-12-15 07:00:00 10 4 Sudeste 8 Sudeste 0 -- -- 78
2019-12-15 06:00:00 9.9 6 Sudeste 8 Sudeste 0 -- -- 78
2019-12-15 05:00:00 9.6 6 Sudeste 9 Sudeste 0 -- -- 77
2019-12-15 04:00:00 9.7 4 Sudeste 6 Sudeste 0 -- -- 77
2019-12-15 03:00:00 9.7 3 Sudeste 7 Sudeste 0 -- -- 78
2019-12-15 02:00:00 9.2 2 Sudeste 13 Norte 0 -- -- 79
2019-12-15 01:00:00 11.2 3 Este 8 Sudeste 0 -- -- 71
2019-12-15 00:00:00 11.2 5 Sudeste 8 Sudeste 0 -- -- 72
2019-12-14 23:00:00 11.5 5 Sudeste 9 Sudeste 0 -- -- 71
2019-12-14 22:00:00 11.9 5 Sudeste 8 Sudeste 0 -- -- 70
2019-12-14 21:00:00 11.7 3 Sur 6 Sudeste 0 -- -- 71
2019-12-14 20:00:00 12.2 0 Calma 8 Sudeste 0 -- -- 70
2019-12-14 19:00:00 12.6 3 Sudeste 4 Sudeste 0 -- -- 68
2019-12-14 18:00:00 13.5 0 Calma 6 Noroeste 0 -- -- 65
2019-12-14 17:00:00 13.6 5 Noroeste 13 Norte 0 -- -- 64
2019-12-14 16:00:00 14 9 Norte 17 Noroeste 0 -- -- 63
2019-12-14 15:00:00 14 6 Norte 12 Noroeste 0 -- -- 66
2019-12-14 14:00:00 13.9 6 Norte 12 Norte 0 -- -- 67
2019-12-14 13:00:00 13.9 6 Noroeste 12 Noroeste 0 -- -- 67
2019-12-14 12:00:00 13.2 4 Noroeste 7 Norte 0 -- -- 75
2019-12-14 11:00:00 12.4 3 Oeste 6 Oeste 0 -- -- 84
2019-12-14 10:00:00 11.8 0 Calma 4 Oeste 0 -- -- 88
2019-12-14 09:00:00 11.8 2 Sudoeste 5 Oeste 0 -- -- 89
2019-12-14 08:00:00 11.9 2 Sudoeste 6 Sudoeste 0 -- -- 90
2019-12-14 07:00:00 11.9 0 Calma 6 Oeste 0 -- -- 89
2019-12-14 06:00:00 12 4 Sudoeste 9 Oeste 0 -- -- 88
2019-12-14 05:00:00 12 4 Oeste 7 Oeste 0 -- -- 88
2019-12-14 04:00:00 12.3 0 Calma 7 Sudoeste 0 -- -- 87
2019-12-14 03:00:00 12.4 2 Sudoeste 10 Sur 0 -- -- 87
2019-12-14 02:00:00 12.3 5 Sudoeste 12 Sudoeste 0 -- -- 88
2019-12-14 01:00:00 12.4 5 Oeste 14 Oeste 0 -- -- 88
2019-12-14 00:00:00 13.1 7 Oeste 16 Oeste 0 -- -- 86
2019-12-13 23:00:00 13.3 10 Oeste 20 Oeste 0 -- -- 86
2019-12-13 22:00:00 13.5 12 Sudoeste 19 Oeste 0 -- -- 86
2019-12-13 21:00:00 13.6 12 Oeste 19 Oeste 0 -- -- 86
2019-12-13 20:00:00 13.5 13 Oeste 21 Oeste 0 -- -- 86
2019-12-13 19:00:00 13.4 13 Oeste 27 Oeste 0 -- -- 85
2019-12-13 18:00:00 14.2 22 Oeste 35 Oeste 0 -- -- 82
2019-12-13 17:00:00 14.9 27 Oeste 40 Oeste 0 -- -- 79
2019-12-13 16:00:00 15.6 28 Oeste 41 Oeste 0 -- -- 77
2019-12-13 15:00:00 15.3 27 Oeste 44 Oeste 0 -- -- 77
2019-12-13 14:00:00 15.1 29 Oeste 44 Oeste 0 -- -- 77
2019-12-13 13:00:00 14.9 27 Oeste 42 Oeste 0 -- -- 78
2019-12-13 12:00:00 14 30 Oeste 45 Oeste 0 -- -- 83
2019-12-13 11:00:00 13.8 28 Oeste 40 Oeste 0 -- -- 85
2019-12-13 10:00:00 13.6 24 Oeste 36 Oeste 0 -- -- 84
2019-12-13 09:00:00 12.9 25 Oeste 35 Oeste 0 -- -- 89
2019-12-13 08:00:00 12.8 19 Oeste 36 Oeste 0 -- -- 89
2019-12-13 07:00:00 12.8 22 Oeste 35 Oeste 0 -- -- 89
2019-12-13 06:00:00 12.8 25 Oeste 39 Oeste 0 -- -- 90
2019-12-13 05:00:00 12.7 26 Oeste 42 Oeste 0 -- -- 89
2019-12-13 04:00:00 12.8 27 Oeste 46 Oeste 0 -- -- 86
2019-12-13 03:00:00 12.6 30 Oeste 48 Oeste 0 -- -- 86
2019-12-13 02:00:00 12.6 28 Oeste 49 Oeste 0 -- -- 84
2019-12-13 01:00:00 12.4 27 Oeste 44 Oeste 0 -- -- 83
2019-12-13 00:00:00 12.4 25 Oeste 42 Oeste 0 -- -- 80
2019-12-12 23:00:00 12.2 23 Oeste 37 Oeste 0 -- -- 79
2019-12-12 22:00:00 11.7 20 Oeste 31 Oeste 0 -- -- 79
2019-12-12 21:00:00 11.7 20 Oeste 33 Oeste 0 -- -- 79
2019-12-12 20:00:00 11.7 20 Oeste 33 Oeste 0 -- -- 78
2019-12-12 19:00:00 12 24 Oeste 40 Sudoeste 0 -- -- 74
2019-12-12 18:00:00 12.9 22 Oeste 32 Oeste 0 -- -- 67
2019-12-12 17:00:00 13.3 19 Oeste 34 Oeste 0 -- -- 68
2019-12-12 16:00:00 13.7 27 Oeste 42 Oeste 0 -- -- 67
2019-12-12 15:00:00 13.5 23 Oeste 34 Oeste 0 -- -- 64
2019-12-12 14:00:00 12.9 17 Oeste 28 Oeste 0 -- -- 67
2019-12-12 13:00:00 12.3 20 Oeste 25 Oeste 0 -- -- 67
2019-12-12 12:00:00 11 17 Oeste 27 Oeste 0 -- -- 68
2019-12-12 11:00:00 10.2 10 Oeste 14 Oeste 0 -- -- 66
2019-12-12 10:00:00 7.9 5 Sur 9 Sur 0 -- -- 69
2019-12-12 09:00:00 6.6 4 Sur 8 Sur 0 -- -- 72
2019-12-12 08:00:00 6.5 2 Sur 8 Sur 0 -- -- 73
2019-12-12 07:00:00 6.4 5 Sudeste 8 Sudeste 0 -- -- 74
2019-12-12 06:00:00 6.3 4 Sur 8 Sudeste 0 -- -- 76
2019-12-12 05:00:00 6.2 4 Sur 6 Sur 0 -- -- 79
2019-12-12 04:00:00 6.7 4 Sur 5 Sur 0 -- -- 80
2019-12-12 03:00:00 7.4 2 Sur 5 Sudoeste 0 -- -- 79
2019-12-12 02:00:00 8.2 0 Calma 5 Norte 0 -- -- 76
2019-12-12 01:00:00 8.4 0 Calma 5 Noroeste 0 -- -- 78
2019-12-12 00:00:00 8.8 2 Sudeste 3 Sudeste 0 -- -- 79
2019-12-11 23:00:00 9.3 2 Sudeste 6 Noroeste 0 -- -- 76
2019-12-11 22:00:00 9.7 2 Norte 7 Norte 0 -- -- 74
2019-12-11 21:00:00 9.9 4 Norte 11 Norte 0 -- -- 75
2019-12-11 20:00:00 10.8 5 Nordeste 12 Noroeste 0 -- -- 78
2019-12-11 19:00:00 12.2 6 Noroeste 12 Noroeste 0 -- -- 73
2019-12-11 18:00:00 13.2 7 Noroeste 19 Oeste 0 -- -- 63
2019-12-11 17:00:00 14 15 Noroeste 28 Oeste 0 -- -- 65
2019-12-11 16:00:00 15 20 Oeste 30 Oeste 0 -- -- 63
2019-12-11 15:00:00 15.4 17 Oeste 23 Oeste 0 -- -- 59
2019-12-11 14:00:00 13.9 7 Oeste 18 Oeste 0 -- -- 72
2019-12-11 13:00:00 12.5 6 Oeste 12 Oeste 0 -- -- 76
2019-12-11 12:00:00 11.4 9 Noroeste 15 Noroeste 0 -- -- 73
2019-12-11 11:00:00 11.7 6 Noroeste 11 Noroeste 0 -- -- 71
2019-12-11 10:00:00 10.7 0 Calma 3 Noroeste 0 -- -- 68
2019-12-11 09:00:00 8.9 0 Calma 7 Sudeste 0 -- -- 72
2019-12-11 08:00:00 8.8 4 Sudeste 7 Sudeste 0 -- -- 70
2019-12-11 07:00:00 9.1 4 Sudeste 7 Sudeste 0 -- -- 74
2019-12-11 06:00:00 9.3 3 Sudeste 5 Sudeste 0 -- -- 74
2019-12-11 05:00:00 9.9 5 Sudeste 6 Sudeste 0 -- -- 74
2019-12-11 04:00:00 10 0 Calma 4 Sudeste 0 -- -- 71
2019-12-11 03:00:00 10.4 3 Sudeste 6 Sudeste 0 -- -- 68
2019-12-11 02:00:00 10.5 3 Sudeste 7 Sudeste 0 -- -- 64
2019-12-11 01:00:00 10.3 2 Sudeste 8 Sudeste 0 -- -- 66
2019-12-11 00:00:00 10.5 3 Sur 5 Sur 0 -- -- 68
2019-12-10 23:00:00 12.3 0 Calma 8 Nordeste 0 -- -- 60
2019-12-10 22:00:00 12.8 4 Este 10 Sudeste 0 -- -- 59
2019-12-10 21:00:00 12.6 6 Sudeste 8 Sudeste 0 -- -- 66
2019-12-10 20:00:00 12.6 6 Sudeste 9 Sudeste 0 -- -- 70
2019-12-10 19:00:00 13.1 5 Sudeste 6 Sudeste 0 -- -- 71
2019-12-10 18:00:00 14.7 0 Calma 4 Este 0 -- -- 64
2019-12-10 17:00:00 15.9 0 Calma 10 Oeste 0 -- -- 59
2019-12-10 16:00:00 15.6 4 Noroeste 12 Noroeste 0 -- -- 61
2019-12-10 15:00:00 14.7 5 Norte 10 Norte 0 -- -- 67
2019-12-10 14:00:00 13.7 6 Norte 13 Nordeste 0 -- -- 68
2019-12-10 13:00:00 12.1 6 Norte 12 Nordeste 0 -- -- 79
2019-12-10 12:00:00 9.8 5 Noroeste 9 Norte 0 -- -- 89
2019-12-10 11:00:00 8 4 Noroeste 6 Noroeste 0 -- -- 89
2019-12-10 10:00:00 6.7 0 Calma 4 Oeste 0 -- -- 92
2019-12-10 09:00:00 6.1 0 Calma 5 Oeste 0 -- -- 91
2019-12-10 08:00:00 7.5 0 Calma 8 Sudeste 0 -- -- 91
2019-12-10 07:00:00 7.5 3 Sudeste 6 Sudoeste 0 -- -- 92
2019-12-10 06:00:00 8.2 3 Norte 9 Este 0 -- -- 92
2019-12-10 05:00:00 8.1 2 Sur 4 Sur 0 -- -- 91
2019-12-10 04:00:00 8.4 0 Calma 6 Nordeste 0 -- -- 89
2019-12-10 03:00:00 10.5 3 Norte 21 Este 0 -- -- 83
2019-12-10 02:00:00 12.1 12 Este 21 Este 0 -- -- 79
2019-12-10 01:00:00 12 3 Este 7 Este 0 -- -- 81
2019-12-10 00:00:00 12.2 3 Este 7 Sudeste 0 -- -- 82
2019-12-09 23:00:00 12.5 3 Este 5 Este 0 -- -- 81
2019-12-09 22:00:00 12.8 5 Sudeste 9 Sudeste 0 -- -- 82
2019-12-09 21:00:00 12.9 2 Este 8 Sudeste 0 -- -- 82
2019-12-09 20:00:00 12.6 5 Sudeste 9 Sudeste 0 -- -- 83
2019-12-09 19:00:00 13.1 0 Calma 2 Sudeste 0 -- -- 81
2019-12-09 18:00:00 14.4 0 Calma 6 Norte 0 -- -- 76
2019-12-09 17:00:00 14.9 2 Norte 10 Norte 0 -- -- 74
2019-12-09 16:00:00 15.2 4 Norte 12 Este 0 -- -- 72
2019-12-09 15:00:00 15.2 4 Nordeste 12 Este 0 -- -- 74
2019-12-09 14:00:00 15 5 Norte 10 Norte 0 -- -- 79
2019-12-09 13:00:00 14.2 2 Norte 6 Noroeste 0 -- -- 83
2019-12-09 12:00:00 13.7 2 Noroeste 6 Noroeste 0 -- -- 83
2019-12-09 11:00:00 13.1 2 Oeste 5 Norte 0 -- -- 85
2019-12-09 10:00:00 12.6 3 Sur 5 Sudoeste 0 -- -- 85
2019-12-09 09:00:00 12.2 0 Calma 5 Nordeste 0 -- -- 84
2019-12-09 08:00:00 12.2 0 Calma 4 Norte 0 -- -- 83
2019-12-09 07:00:00 12.3 0 Calma 6 Sudeste 0 -- -- 81
2019-12-09 06:00:00 12.6 0 Calma 5 Nordeste 0 -- -- 78
2019-12-09 05:00:00 12.8 4 Este 6 Sudeste 0 -- -- 76
2019-12-09 04:00:00 12.6 3 Sudeste 8 Norte 0 -- -- 78
2019-12-09 03:00:00 12.4 5 Nordeste 6 Nordeste 0 -- -- 78
2019-12-09 02:00:00 12.7 4 Sudeste 8 Sudeste 0 -- -- 74
2019-12-09 01:00:00 12.5 4 Sur 10 Sur 0 -- -- 74
2019-12-09 00:00:00 12.1 6 Sur 12 Sudoeste 0 -- -- 76
2019-12-08 23:00:00 12.4 4 Sudoeste 8 Sudoeste 0 -- -- 76
2019-12-08 22:00:00 12.8 0 Calma 12 Sur 0 -- -- 74
2019-12-08 21:00:00 12.9 4 Sur 8 Sudeste 0 -- -- 77
2019-12-08 20:00:00 13.3 3 Sur 4 Sur 0 -- -- 76
2019-12-08 19:00:00 14.3 0 Calma 7 Norte 0 -- -- 71
2019-12-08 18:00:00 15.4 4 Noroeste 10 Noroeste 0 -- -- 69
2019-12-08 17:00:00 15.9 9 Noroeste 12 Noroeste 0 -- -- 64
2019-12-08 16:00:00 17.1 9 Noroeste 16 Noroeste 0 -- -- 59
2019-12-08 15:00:00 16.7 7 Noroeste 14 Noroeste 0 -- -- 61
2019-12-08 14:00:00 15.8 3 Noroeste 9 Noroeste 0 -- -- 63
2019-12-08 13:00:00 14.9 4 Noroeste 9 Noroeste 0 -- -- 67
2019-12-08 12:00:00 14.1 0 Calma 7 Sur 0 -- -- 70
2019-12-08 11:00:00 11 0 Calma 5 Noroeste 0 -- -- 81
2019-12-08 10:00:00 10.8 0 Calma 6 Sudeste 0 -- -- 81
2019-12-08 09:00:00 9.5 4 Este 7 Sudeste 0 -- -- 84
2019-12-08 08:00:00 9.2 0 Calma 3 Este 0 -- -- 83
2019-12-08 07:00:00 9.4 2 Este 4 Sudeste 0 -- -- 82
2019-12-08 06:00:00 9.7 2 Sudeste 3 Sudeste 0 -- -- 82
2019-12-08 05:00:00 10.2 2 Sudeste 4 Sudeste 0 -- -- 79
2019-12-08 04:00:00 10.3 2 Sudeste 3 Sudeste 0 -- -- 80
2019-12-08 03:00:00 10.9 3 Sudeste 5 Sudeste 0 -- -- 78
2019-12-08 02:00:00 11.5 3 Sudeste 8 Sudeste 0 -- -- 76
2019-12-08 01:00:00 11.8 5 Sudeste 7 Sudeste 0 -- -- 76
2019-12-08 00:00:00 12.1 6 Sudeste 7 Sur 0 -- -- 74
2019-12-07 23:00:00 11.8 3 Sudeste 4 Sudeste 0 -- -- 78
2019-12-07 22:00:00 12.1 3 Sudeste 5 Sudeste 0 -- -- 77
2019-12-07 21:00:00 12.6 5 Sudeste 6 Sudeste 0 -- -- 75
2019-12-07 20:00:00 13.1 5 Sudeste 6 Sudeste 0 -- -- 73
2019-12-07 19:00:00 14.2 2 Este 4 Este 0 -- -- 69
2019-12-07 18:00:00 16 3 Nordeste 8 Norte 0 -- -- 63
2019-12-07 17:00:00 17.2 4 Norte 10 Norte 0 -- -- 56
2019-12-07 16:00:00 17.3 5 Norte 11 Norte 0 -- -- 55
2019-12-07 15:00:00 17 5 Norte 11 Norte 0 -- -- 60
2019-12-07 14:00:00 16.7 5 Norte 13 Norte 0 -- -- 64
2019-12-07 13:00:00 15.9 4 Norte 9 Norte 0 -- -- 72
2019-12-07 12:00:00 14 3 Norte 8 Noroeste 0 -- -- 78
2019-12-07 11:00:00 12.9 2 Oeste 7 Nordeste 0 -- -- 77
2019-12-07 10:00:00 10.1 5 Nordeste 13 Sudeste 0 -- -- 83
2019-12-07 09:00:00 11.3 10 Sudeste 17 Sudeste 0 -- -- 78
2019-12-07 08:00:00 11.2 6 Sudeste 20 Sudeste 0 -- -- 80
2019-12-07 07:00:00 11.1 12 Sudeste 18 Sudeste 0 -- -- 84
2019-12-07 06:00:00 10.6 0 Calma 7 Este 0 -- -- 85
2019-12-07 05:00:00 10.7 4 Sur 8 Este 0 -- -- 84
2019-12-07 04:00:00 10.7 3 Nordeste 10 Este 0 -- -- 83
2019-12-07 03:00:00 10.2 2 Sudeste 8 Sudeste 0 -- -- 84
2019-12-07 02:00:00 10.6 4 Sudeste 7 Sudeste 0 -- -- 83
2019-12-07 01:00:00 11 4 Nordeste 15 Sudeste 0 -- -- 82
2019-12-07 00:00:00 13.3 10 Sudeste 21 Sudeste 0 -- -- 73
2019-12-06 23:00:00 13.2 12 Sudeste 20 Sudeste 0 -- -- 75
2019-12-06 22:00:00 13 10 Sudeste 20 Sudeste 0 -- -- 73
2019-12-06 21:00:00 13.3 12 Sudeste 19 Este 0 -- -- 70
2019-12-06 20:00:00 13.8 11 Sudeste 15 Este 0 -- -- 69
2019-12-06 19:00:00 14.4 4 Este 8 Este 0 -- -- 66
2019-12-06 18:00:00 15.5 2 Nordeste 9 Nordeste 0 -- -- 64
2019-12-06 17:00:00 16.6 6 Nordeste 14 Norte 0 -- -- 59
2019-12-06 16:00:00 16.9 9 Nordeste 17 Norte 0 -- -- 59
2019-12-06 15:00:00 17.2 7 Norte 15 Norte 0 -- -- 59
2019-12-06 14:00:00 16.2 6 Nordeste 14 Nordeste 0 -- -- 63
2019-12-06 13:00:00 15.2 5 Nordeste 13 Este 0 -- -- 68
2019-12-06 12:00:00 13.8 6 Nordeste 13 Nordeste 0 -- -- 70
2019-12-06 11:00:00 11.8 9 Nordeste 14 Nordeste 0 -- -- 74
2019-12-06 10:00:00 10.5 5 Norte 13 Sudeste 0 -- -- 76
2019-12-06 09:00:00 9.1 2 Oeste 12 Sudeste 0 -- -- 79
2019-12-06 08:00:00 8.7 3 Norte 15 Este 0 -- -- 81
2019-12-06 07:00:00 9.5 7 Sudeste 19 Sudeste 0 -- -- 80
2019-12-06 06:00:00 9.1 5 Sudeste 18 Norte 0 -- -- 83
2019-12-06 05:00:00 10.4 6 Este 17 Este 0 -- -- 76
2019-12-06 04:00:00 10.6 10 Este 18 Sudeste 0 -- -- 76
2019-12-06 03:00:00 10.9 9 Sudeste 18 Sudeste 0 -- -- 80
2019-12-06 02:00:00 10.6 0 Calma 9 Este 0 -- -- 83
2019-12-06 01:00:00 11.7 5 Este 13 Este 0 -- -- 82
2019-12-06 00:00:00 11.8 8 Este 18 Sudeste 0 -- -- 82
2019-12-05 23:00:00 12.1 10 Sudeste 17 Este 0 -- -- 81
2019-12-05 22:00:00 12.3 9 Sudeste 18 Sudeste 0 -- -- 81
2019-12-05 21:00:00 12.6 10 Sudeste 18 Sudeste 0 -- -- 78
2019-12-05 20:00:00 12.8 7 Este 13 Sudeste 0 -- -- 72
2019-12-05 19:00:00 13.2 10 Este 16 Este 0 -- -- 70
2019-12-05 18:00:00 13.8 8 Sudeste 17 Sudeste 0 -- -- 70
2019-12-05 17:00:00 15 8 Sudeste 20 Nordeste 0 -- -- 64
2019-12-05 16:00:00 15.4 8 Nordeste 21 Este 0 -- -- 61
2019-12-05 15:00:00 15.1 10 Nordeste 22 Nordeste 0 -- -- 64
2019-12-05 14:00:00 14.7 7 Nordeste 18 Nordeste 0 -- -- 66
2019-12-05 13:00:00 13.4 8 Nordeste 17 Nordeste 0 -- -- 70
2019-12-05 12:00:00 12.6 6 Este 12 Nordeste 0 -- -- 68
2019-12-05 11:00:00 11.8 5 Nordeste 12 Este 0 -- -- 69
2019-12-05 10:00:00 9.8 3 Norte 18 Sudeste 0 -- -- 72
2019-12-05 09:00:00 7.4 0 Calma 16 Este 0 -- -- 77
2019-12-05 08:00:00 8.2 12 Sudeste 19 Sudeste 0 -- -- 73
2019-12-05 07:00:00 8.2 9 Sudeste 17 Este 0 -- -- 76
2019-12-05 06:00:00 8.1 10 Sudeste 17 Sudeste 0 -- -- 72
2019-12-05 05:00:00 8.4 9 Sudeste 15 Sudeste 0 -- -- 68
2019-12-05 04:00:00 7.9 8 Sudeste 15 Sudeste 0 -- -- 69
2019-12-05 03:00:00 8.1 5 Sudeste 9 Este 0 -- -- 70
2019-12-05 02:00:00 8.6 4 Este 9 Sudeste 0 -- -- 64
2019-12-05 01:00:00 8.5 5 Sudeste 9 Sudeste 0 -- -- 68
2019-12-05 00:00:00 9 4 Sudeste 9 Sur 0 -- -- 66
2019-12-04 23:00:00 9 5 Sur 9 Sur 0 -- -- 70
2019-12-04 22:00:00 9.1 4 Sur 9 Sudoeste 0 -- -- 71
2019-12-04 21:00:00 9.6 4 Sudoeste 12 Sur 0 -- -- 64
2019-12-04 20:00:00 10.1 4 Sur 8 Sudeste 0 -- -- 72
2019-12-04 19:00:00 10.6 4 Sudoeste 20 Oeste 0 -- -- 74
2019-12-04 18:00:00 12.2 4 Oeste 25 Oeste 0 -- -- 72
2019-12-04 17:00:00 13.4 8 Noroeste 12 Noroeste 0 -- -- 75
2019-12-04 16:00:00 13.4 9 Noroeste 17 Noroeste 0 -- -- 72
2019-12-04 15:00:00 14 10 Noroeste 22 Oeste 0 -- -- 70
2019-12-04 14:00:00 13.6 11 Noroeste 18 Noroeste 0 -- -- 76
2019-12-04 13:00:00 13.3 15 Oeste 23 Oeste 0 -- -- 81
2019-12-04 12:00:00 12 11 Sudoeste 16 Oeste 0 -- -- 88
2019-12-04 11:00:00 10.5 5 Sudoeste 10 Sudoeste 0 -- -- 90
2019-12-04 10:00:00 9.9 2 Sur 5 Sur 0 -- -- 91
2019-12-04 09:00:00 9.5 3 Sudoeste 5 Sudeste 0 -- -- 91
2019-12-04 08:00:00 9.1 0 Calma 4 Oeste 0 -- -- 92
2019-12-04 07:00:00 9.3 0 Calma 3 Este 0 -- -- 91
2019-12-04 06:00:00 9.7 0 Calma 4 Oeste 0 -- -- 91
2019-12-04 05:00:00 9.9 2 Sur 5 Sudoeste 0 -- -- 90
2019-12-04 04:00:00 10 2 Sur 5 Noroeste 0 -- -- 88
2019-12-04 03:00:00 10.3 0 Calma 4 Sudoeste 0.2 -- -- 88
2019-12-04 02:00:00 10.6 3 Sur 6 Nordeste 1.6 -- -- 87
2019-12-04 01:00:00 11.2 2 Noroeste 5 Noroeste 0 -- -- 82
2019-12-04 00:00:00 11.3 2 Sudeste 3 Sudeste 0 -- -- 84
2019-12-03 23:00:00 11.7 3 Sudoeste 9 Nordeste 0 -- -- 83
2019-12-03 22:00:00 12.3 4 Nordeste 10 Nordeste 0 -- -- 78
2019-12-03 21:00:00 12.9 0 Calma 2 Sur 0 -- -- 77
2019-12-03 20:00:00 13.2 0 Calma 5 Sudeste 0 -- -- 75
2019-12-03 19:00:00 13.9 3 Este 8 Este 0 -- -- 70
2019-12-03 18:00:00 14.6 0 Calma 8 Nordeste 0 -- -- 67
2019-12-03 17:00:00 15 4 Nordeste 19 Nordeste 0 -- -- 65
2019-12-03 16:00:00 15.6 8 Nordeste 18 Norte 0 -- -- 62
2019-12-03 15:00:00 15.3 10 Nordeste 19 Norte 0 -- -- 67
2019-12-03 14:00:00 14.3 8 Este 21 Este 0 -- -- 69
2019-12-03 13:00:00 13.7 7 Nordeste 22 Nordeste 0 -- -- 70
2019-12-03 12:00:00 12.3 11 Nordeste 22 Nordeste 0 -- -- 75
2019-12-03 11:00:00 10.9 6 Nordeste 15 Este 0 -- -- 81
2019-12-03 10:00:00 9.2 4 Nordeste 9 Nordeste 0 -- -- 89
2019-12-03 09:00:00 8 0 Calma 4 Nordeste 0 -- -- 91
2019-12-03 08:00:00 8.4 0 Calma 6 Este 0 -- -- 91
2019-12-03 07:00:00 8.4 3 Sudeste 5 Sur 0 -- -- 92
2019-12-03 06:00:00 8.2 2 Sur 8 Sur 0 -- -- 91
2019-12-03 05:00:00 8.6 0 Calma 7 Noroeste 0 -- -- 90
2019-12-03 04:00:00 9.2 3 Sur 7 Sudeste 0 -- -- 89
2019-12-03 03:00:00 9.5 0 Calma 9 Este 0 -- -- 88
2019-12-03 02:00:00 10.3 2 Este 8 Este 0 -- -- 87
2019-12-03 01:00:00 10.8 4 Este 8 Este 0 -- -- 85
2019-12-03 00:00:00 10.4 2 Norte 15 Sudeste 0 -- -- 84
2019-12-02 23:00:00 11.3 9 Sudeste 13 Sudeste 0 -- -- 82
2019-12-02 22:00:00 11.2 0 Calma 13 Este 0 -- -- 83
2019-12-02 21:00:00 12.1 7 Sudeste 14 Sudeste 0 -- -- 79
2019-12-02 20:00:00 12 6 Sudeste 12 Sudeste 0 -- -- 81
2019-12-02 19:00:00 12.2 6 Sudeste 10 Este 0 -- -- 83
2019-12-02 18:00:00 13 6 Este 17 Sudeste 0 -- -- 79
2019-12-02 17:00:00 14.1 9 Sudeste 17 Sudeste 0 -- -- 73
2019-12-02 16:00:00 14.5 3 Este 14 Este 0.2 -- -- 74
2019-12-02 15:00:00 13.9 6 Este 16 Nordeste 0 -- -- 74
2019-12-02 14:00:00 13.5 7 Nordeste 18 Nordeste 0 -- -- 79
2019-12-02 13:00:00 12.1 5 Nordeste 16 Sudeste 0 -- -- 84
2019-12-02 12:00:00 11.2 9 Sudeste 19 Sudeste 0.4 -- -- 84
2019-12-02 11:00:00 11.1 14 Sudeste 24 Este 0 -- -- 85
2019-12-02 10:00:00 10.9 10 Este 19 Este 0 -- -- 88
2019-12-02 09:00:00 10.4 11 Este 19 Este 0 -- -- 89
2019-12-02 08:00:00 10.1 11 Este 23 Nordeste 0 -- -- 84
2019-12-02 07:00:00 10 8 Este 14 Este 0.2 -- -- 84
2019-12-02 06:00:00 9.9 8 Este 17 Este 2.2 -- -- 84
2019-12-02 05:00:00 10.9 2 Este 5 Este 1 -- -- 90
2019-12-02 04:00:00 11.1 2 Sudeste 4 Sudoeste 0 -- -- 90
2019-12-02 03:00:00 11.2 2 Sur 9 Sudoeste 0 -- -- 89
2019-12-02 02:00:00 11.3 5 Sur 9 Sur 0.2 -- -- 89
2019-12-02 01:00:00 11.4 5 Sur 11 Sur 0 -- -- 90
2019-12-02 00:00:00 11.4 4 Sur 15 Sudoeste 0 -- -- 90
2019-12-01 23:00:00 11.6 7 Sur 13 Sudoeste 1.6 -- -- 89
2019-12-01 22:00:00 11.5 7 Sur 15 Sur 0 -- -- 88
2019-12-01 21:00:00 11.3 9 Sudoeste 15 Sur 0 -- -- 89
2019-12-01 20:00:00 11.4 6 Sudoeste 15 Sudoeste 0 -- -- 89
2019-12-01 19:00:00 11.5 3 Sudeste 15 Sudoeste 0 -- -- 90
2019-12-01 18:00:00 12 8 Sudoeste 19 Oeste 0 -- -- 89
2019-12-01 17:00:00 12 9 Sudoeste 22 Sudoeste 5.8 -- -- 90
2019-12-01 16:00:00 13.5 15 Sudoeste 27 Sudoeste 0 -- -- 83
2019-12-01 15:00:00 13.4 13 Sudoeste 30 Oeste 1.8 -- -- 87
2019-12-01 14:00:00 13.6 14 Oeste 30 Oeste 0 -- -- 82
2019-12-01 13:00:00 14.8 17 Oeste 31 Oeste 0 -- -- 70
2019-12-01 12:00:00 14 13 Oeste 21 Oeste 0 -- -- 78
2019-12-01 11:00:00 13.1 14 Oeste 21 Sudoeste 0 -- -- 87
2019-12-01 10:00:00 11.7 6 Oeste 10 Sudoeste 0 -- -- 93
2019-12-01 09:00:00 10.9 6 Sudoeste 13 Noroeste 0 -- -- 91
2019-12-01 08:00:00 11.1 4 Sur 9 Sudeste 0 -- -- 93
2019-12-01 07:00:00 11.6 4 Sur 9 Sudoeste 0.2 -- -- 94
2019-12-01 06:00:00 11.8 4 Sudoeste 10 Sudoeste 0 -- -- 94
2019-12-01 05:00:00 12.4 6 Oeste 17 Oeste 0 -- -- 94
2019-12-01 04:00:00 13.1 14 Oeste 22 Oeste 0 -- -- 93
2019-12-01 03:00:00 13 10 Oeste 23 Oeste 0.4 -- -- 92
2019-12-01 02:00:00 13.7 15 Oeste 23 Oeste 0.4 -- -- 92
2019-12-01 01:00:00 14.1 13 Sudoeste 23 Sudoeste 0 -- -- 87
2019-12-01 00:00:00 14.2 5 Sudoeste 16 Sudoeste 0 -- -- 79
2019-11-30 23:00:00 14.3 9 Sudoeste 15 Sudoeste 0 -- -- 77
2019-11-30 22:00:00 14.5 6 Sur 17 Sudoeste 0 -- -- 77
2019-11-30 21:00:00 14.7 10 Sudoeste 27 Oeste 0 -- -- 78
2019-11-30 20:00:00 15.3 9 Oeste 17 Sudoeste 0 -- -- 75
2019-11-30 19:00:00 15.4 9 Oeste 15 Oeste 0 -- -- 74
2019-11-30 18:00:00 16.1 8 Oeste 21 Oeste 0 -- -- 74
2019-11-30 17:00:00 17.6 17 Oeste 28 Oeste 0 -- -- 68
2019-11-30 16:00:00 18 14 Oeste 21 Oeste 0 -- -- 67
2019-11-30 15:00:00 17.8 11 Oeste 17 Oeste 0 -- -- 68
2019-11-30 14:00:00 16.5 9 Noroeste 16 Oeste 0 -- -- 71
2019-11-30 13:00:00 15.8 5 Oeste 12 Noroeste 0 -- -- 75
2019-11-30 12:00:00 14 7 Noroeste 12 Norte 0 -- -- 81
2019-11-30 11:00:00 14.7 2 Oeste 4 Sudoeste 0 -- -- 76
2019-11-30 10:00:00 12.2 0 Calma 11 Sudeste 0 -- -- 83
2019-11-30 09:00:00 9.2 0 Calma 2 Noroeste 0 -- -- 90
2019-11-30 08:00:00 9.4 0 Calma 5 Noroeste 0 -- -- 89
2019-11-30 07:00:00 10.2 0 Calma 4 Noroeste 0 -- -- 87
2019-11-30 06:00:00 10.9 0 Calma 5 Nordeste 0 -- -- 86
2019-11-30 05:00:00 11.3 4 Nordeste 9 Sudeste 0 -- -- 85
2019-11-30 04:00:00 11.1 6 Sudeste 8 Sudeste 0 -- -- 86
2019-11-30 03:00:00 10.9 0 Calma 6 Norte 0 -- -- 86
2019-11-30 02:00:00 11.3 0 Calma 5 Norte 0 -- -- 84
2019-11-30 01:00:00 12.4 0 Calma 4 Norte 0 -- -- 81
2019-11-30 00:00:00 13.3 3 Norte 9 Sudeste 0 -- -- 77
2019-11-29 23:00:00 14.3 4 Este 9 Este 0 -- -- 74
2019-11-29 22:00:00 14.4 2 Este 8 Este 0 -- -- 74
2019-11-29 21:00:00 14.6 2 Este 8 Este 0 -- -- 74
2019-11-29 20:00:00 15.3 4 Este 8 Este 0 -- -- 71
2019-11-29 19:00:00 16 4 Este 8 Este 0 -- -- 69
2019-11-29 18:00:00 17.1 3 Nordeste 14 Nordeste 0 -- -- 66
2019-11-29 17:00:00 18 8 Nordeste 18 Norte 0 -- -- 63
2019-11-29 16:00:00 18.3 6 Nordeste 19 Norte 0 -- -- 61
2019-11-29 15:00:00 18.1 9 Norte 17 Norte 0 -- -- 61
2019-11-29 14:00:00 17.9 6 Nordeste 16 Norte 0 -- -- 65
2019-11-29 13:00:00 17.4 5 Norte 13 Nordeste 0 -- -- 66
2019-11-29 12:00:00 16.7 6 Nordeste 13 Este 0 -- -- 68
2019-11-29 11:00:00 15.8 6 Sudeste 12 Sudeste 0 -- -- 71
2019-11-29 10:00:00 14.1 6 Sudeste 12 Sudeste 0 -- -- 73
2019-11-29 09:00:00 12 8 Sudeste 14 Sudeste 0 -- -- 81
2019-11-29 08:00:00 11.2 6 Sudeste 10 Sudeste 0 -- -- 86
2019-11-29 07:00:00 10.6 4 Sudeste 6 Sudeste 0 -- -- 89
2019-11-29 06:00:00 10.7 0 Calma 6 Nordeste 0 -- -- 87
2019-11-29 05:00:00 11.3 0 Calma 6 Sudeste 0 -- -- 85
2019-11-29 04:00:00 10.9 2 Sudeste 3 Sudeste 0 -- -- 87
2019-11-29 03:00:00 11.5 0 Calma 10 Sudeste 0 -- -- 82
2019-11-29 02:00:00 12.7 8 Sudeste 13 Sudeste 0 -- -- 80
2019-11-29 01:00:00 12.3 7 Sudeste 11 Sudeste 0 -- -- 83
2019-11-29 00:00:00 12.5 0 Calma 5 Este 0 -- -- 82
2019-11-28 23:00:00 13.7 3 Este 11 Sudeste 0 -- -- 78
2019-11-28 22:00:00 13.6 7 Sudeste 12 Sudeste 0 -- -- 79
2019-11-28 21:00:00 13.8 2 Este 5 Este 0 -- -- 77
2019-11-28 20:00:00 14.5 4 Este 9 Sudeste 0 -- -- 76
2019-11-28 19:00:00 15 5 Sudeste 10 Sudeste 0 -- -- 77
2019-11-28 18:00:00 15.5 4 Nordeste 17 Nordeste 0 -- -- 76
2019-11-28 17:00:00 16.3 9 Norte 16 Norte 0 -- -- 72
2019-11-28 16:00:00 17.4 7 Norte 15 Noroeste 0 -- -- 64
2019-11-28 15:00:00 17.2 5 Norte 15 Noroeste 0 -- -- 63
2019-11-28 14:00:00 17.4 2 Noroeste 12 Noroeste 0 -- -- 60
2019-11-28 13:00:00 17 4 Oeste 15 Oeste 0 -- -- 60
2019-11-28 12:00:00 16 4 Sudeste 9 Este 0 -- -- 68
2019-11-28 11:00:00 14.6 5 Sudeste 10 Sudeste 0 -- -- 77
2019-11-28 10:00:00 13.3 6 Sudeste 10 Sudeste 0 -- -- 84
2019-11-28 09:00:00 12.6 0 Calma 9 Sur 0 -- -- 88
2019-11-28 08:00:00 12.4 3 Sur 8 Sudeste 0 -- -- 89
2019-11-28 07:00:00 12.3 0 Calma 17 Sudeste 0 -- -- 89
2019-11-28 06:00:00 12.1 6 Sudeste 13 Sudeste 0 -- -- 90
2019-11-28 05:00:00 12.2 0 Calma 6 Sur 0 -- -- 90
2019-11-28 04:00:00 12.2 3 Sudeste 9 Sur 0 -- -- 90
2019-11-28 03:00:00 12 5 Sudeste 10 Sudeste 0 -- -- 90
2019-11-28 02:00:00 12.1 4 Sur 9 Sur 0 -- -- 91
2019-11-28 01:00:00 12.3 3 Sur 9 Sudoeste 0 -- -- 90
2019-11-28 00:00:00 12.8 4 Sur 13 Oeste 0 -- -- 90
2019-11-27 23:00:00 13.4 8 Oeste 14 Oeste 0 -- -- 91
2019-11-27 22:00:00 14.3 6 Oeste 12 Sudoeste 0 -- -- 87
2019-11-27 21:00:00 14.6 6 Sudoeste 8 Sudoeste 0 -- -- 84
2019-11-27 20:00:00 14.6 3 Sudoeste 9 Sudoeste 0 -- -- 84
2019-11-27 19:00:00 14.8 3 Oeste 5 Oeste 0 -- -- 84
2019-11-27 18:00:00 15.5 3 Oeste 16 Noroeste 0 -- -- 81
2019-11-27 17:00:00 16.3 8 Noroeste 13 Noroeste 0 -- -- 77
2019-11-27 16:00:00 16.6 8 Noroeste 15 Oeste 0 -- -- 79
2019-11-27 15:00:00 17.1 11 Noroeste 19 Oeste 0 -- -- 72
2019-11-27 14:00:00 16.3 11 Oeste 20 Oeste 0 -- -- 81
2019-11-27 06:00:00 -- -- -- -- -- -- -- -- --
2019-11-27 05:00:00 14.3 17 Oeste 25 Oeste 0 -- -- 91
2019-11-27 04:00:00 14.2 13 Sudoeste 29 Oeste 0 -- -- 90
2019-11-27 03:00:00 14.5 21 Sudoeste 35 Oeste 0.4 -- -- 94
2019-11-27 02:00:00 14.5 12 Oeste 25 Sudoeste 0.6 -- -- 93
2019-11-27 01:00:00 14.8 17 Sudoeste 33 Oeste 0 -- -- 91
2019-11-27 00:00:00 15.4 17 Sudoeste 32 Sudoeste 0 -- -- 87
2019-11-26 23:00:00 15.4 16 Oeste 30 Sudoeste 0 -- -- 86
2019-11-26 22:00:00 15 14 Sudoeste 30 Sudoeste 0 -- -- 88
2019-11-26 21:00:00 15.1 14 Oeste 28 Oeste 0 -- -- 87
2019-11-26 20:00:00 15.4 11 Sudoeste 18 Oeste 0 -- -- 89
2019-11-26 19:00:00 15.9 9 Oeste 19 Oeste 0 -- -- 89
2019-11-26 18:00:00 16.5 9 Oeste 25 Sudoeste 0 -- -- 88
2019-11-26 17:00:00 16.9 14 Oeste 24 Oeste 0.2 -- -- 91
2019-11-26 16:00:00 17 14 Oeste 20 Oeste 0.2 -- -- 91
2019-11-26 15:00:00 17.6 12 Oeste 25 Oeste 0 -- -- 87
2019-11-26 14:00:00 18.4 15 Oeste 26 Oeste 0 -- -- 77
2019-11-26 13:00:00 18.2 9 Sudoeste 16 Oeste 0 -- -- 77
2019-11-26 12:00:00 17.1 5 Sudoeste 10 Sudoeste 0 -- -- 75
2019-11-26 11:00:00 16.1 5 Sur 8 Sur 0 -- -- 81
2019-11-26 10:00:00 15.1 0 Calma 8 Sudeste 0 -- -- 86
2019-11-26 09:00:00 14.3 4 Sudeste 6 Sudeste 0 -- -- 91
2019-11-26 08:00:00 13.7 4 Sur 8 Sur 0 -- -- 94
2019-11-26 07:00:00 13.7 5 Sudeste 8 Sudeste 0 -- -- 96
2019-11-26 06:00:00 13.8 3 Sudeste 5 Sudeste 0 -- -- 96
2019-11-26 05:00:00 14.2 2 Sudoeste 6 Sur 0 -- -- 96
2019-11-26 04:00:00 14.3 3 Noroeste 12 Noroeste 0 -- -- 96
2019-11-26 03:00:00 14.7 8 Noroeste 17 Oeste 0 -- -- 96
2019-11-26 02:00:00 15.1 10 Noroeste 21 Oeste 0 -- -- 96
2019-11-26 01:00:00 15.4 13 Oeste 23 Oeste 0 -- -- 96
2019-11-26 00:00:00 15.7 13 Oeste 22 Oeste 0 -- -- 95
2019-11-25 23:00:00 15.6 7 Oeste 18 Oeste 0 -- -- 94
2019-11-25 22:00:00 15.7 9 Sudoeste 17 Oeste 0 -- -- 95
2019-11-25 21:00:00 15.5 12 Oeste 18 Sudoeste 0 -- -- 95
2019-11-25 20:00:00 15.5 11 Sudoeste 20 Oeste 0.2 -- -- 95
2019-11-25 19:00:00 15.6 13 Sudoeste 21 Oeste 0 -- -- 94
2019-11-25 18:00:00 15.8 13 Oeste 22 Oeste 0.2 -- -- 94
2019-11-25 17:00:00 16.1 18 Oeste 33 Oeste 0 -- -- 92
2019-11-25 16:00:00 16.8 20 Oeste 37 Oeste 0 -- -- 86
2019-11-25 15:00:00 16.6 16 Oeste 39 Oeste 0 -- -- 87
2019-11-25 14:00:00 17 25 Oeste 37 Sudoeste 0 -- -- 82
2019-11-25 13:00:00 16.3 26 Oeste 37 Oeste 0 -- -- 84
2019-11-25 12:00:00 15.8 22 Oeste 33 Oeste 0 -- -- 85
2019-11-25 11:00:00 15.3 17 Sudoeste 40 Oeste 0 -- -- 87
2019-11-25 10:00:00 14.1 9 Sudoeste 17 Sur 0 -- -- 90
2019-11-25 09:00:00 13.1 9 Sudoeste 18 Sudoeste 0 -- -- 91
2019-11-25 08:00:00 12.5 7 Sur 14 Sudoeste 0 -- -- 92
2019-11-25 07:00:00 12 6 Sur 12 Sur 0.2 -- -- 91
2019-11-25 06:00:00 12.4 4 Sudoeste 12 Sur 0 -- -- 85
2019-11-25 05:00:00 12.2 6 Sur 12 Sudoeste 0 -- -- 84
2019-11-25 04:00:00 11.7 6 Sur 12 Sur 0 -- -- 85
2019-11-25 03:00:00 11.4 6 Sur 13 Sur 0 -- -- 85
2019-11-25 02:00:00 11.1 6 Sur 10 Sur 0 -- -- 84
2019-11-25 01:00:00 11 5 Sur 10 Sur 0 -- -- 83
2019-11-25 00:00:00 11.2 6 Sur 13 Sur 0 -- -- 81
2019-11-24 23:00:00 11.3 6 Sur 12 Sur 0 -- -- 79
2019-11-24 22:00:00 11.2 4 Sur 14 Sudoeste 0 -- -- 79
2019-11-24 21:00:00 11.6 9 Sudoeste 14 Sudoeste 0 -- -- 79
2019-11-24 20:00:00 11.9 6 Sudoeste 13 Sudoeste 0 -- -- 75
2019-11-24 19:00:00 12.1 5 Sur 11 Oeste 0 -- -- 72
2019-11-24 18:00:00 13.3 10 Oeste 20 Oeste 0 -- -- 69
2019-11-24 17:00:00 14.5 15 Oeste 21 Oeste 0 -- -- 62
2019-11-24 16:00:00 14.6 13 Oeste 24 Oeste 0 -- -- 62
2019-11-24 15:00:00 14.2 13 Oeste 23 Oeste 0 -- -- 63
2019-11-24 14:00:00 13.7 14 Oeste 21 Oeste 0 -- -- 67
2019-11-24 13:00:00 12.7 8 Noroeste 16 Oeste 0 -- -- 69
2019-11-24 12:00:00 12 8 Noroeste 14 Noroeste 0 -- -- 70
2019-11-24 11:00:00 11.6 6 Oeste 12 Oeste 0 -- -- 71
2019-11-24 10:00:00 10.3 4 Sudoeste 6 Sudoeste 0 -- -- 75
2019-11-24 09:00:00 8.1 3 Sur 6 Sur 0 -- -- 83
2019-11-24 08:00:00 7.9 3 Sudoeste 9 Sudoeste 0 -- -- 83
2019-11-24 07:00:00 8 4 Sur 9 Sur 0 -- -- 82
2019-11-24 06:00:00 8.3 4 Sur 11 Sur 0 -- -- 82
2019-11-24 05:00:00 8.6 5 Sur 10 Sudoeste 0 -- -- 81
2019-11-24 04:00:00 8.6 6 Sur 13 Sur 0 -- -- 83
2019-11-24 03:00:00 8.7 5 Sur 9 Sur 0 -- -- 82
2019-11-24 02:00:00 8.8 5 Sudoeste 9 Sudoeste 0 -- -- 82
2019-11-24 01:00:00 9.4 4 Sudoeste 10 Sudoeste 0 -- -- 80
2019-11-24 00:00:00 9.6 4 Sur 11 Oeste 0 -- -- 80
2019-11-23 23:00:00 9.9 5 Sudoeste 14 Sudoeste 0 -- -- 78
2019-11-23 22:00:00 10.2 5 Sudoeste 12 Oeste 0 -- -- 77
2019-11-23 21:00:00 10.5 8 Oeste 13 Oeste 0 -- -- 78
2019-11-23 20:00:00 10.7 4 Sudoeste 13 Oeste 0 -- -- 75
2019-11-23 19:00:00 11.5 11 Oeste 19 Oeste 0 -- -- 73
2019-11-23 18:00:00 13.1 10 Oeste 29 Oeste 0 -- -- 67
2019-11-23 17:00:00 14.3 23 Oeste 37 Oeste 0 -- -- 63
2019-11-23 16:00:00 14.7 29 Oeste 41 Noroeste 0 -- -- 57
2019-11-23 15:00:00 14.3 30 Oeste 42 Oeste 0 -- -- 63
2019-11-23 14:00:00 13.9 27 Oeste 44 Noroeste 0 -- -- 69
2019-11-23 13:00:00 13.4 30 Oeste 45 Oeste 0 -- -- 70
2019-11-23 12:00:00 13.4 30 Oeste 42 Oeste 0 -- -- 74
2019-11-23 11:00:00 12.4 28 Oeste 41 Oeste 0 -- -- 84
2019-11-23 10:00:00 11.7 30 Oeste 43 Oeste 0 -- -- 89
2019-11-23 09:00:00 11.3 27 Oeste 42 Oeste 0 -- -- 90
2019-11-23 08:00:00 11 21 Oeste 35 Oeste 0 -- -- 91
2019-11-23 07:00:00 11.3 25 Oeste 41 Oeste 1.2 -- -- 92
2019-11-23 06:00:00 12.2 32 Oeste 52 Oeste 0.4 -- -- 86
2019-11-23 05:00:00 12.9 32 Oeste 54 Oeste 0 -- -- 80
2019-11-23 04:00:00 13.1 35 Oeste 56 Oeste 0 -- -- 79
2019-11-23 03:00:00 13.2 32 Oeste 61 Oeste 0 -- -- 81
2019-11-23 02:00:00 13.1 28 Oeste 43 Sudoeste 0 -- -- 84
2019-11-23 01:00:00 13.6 30 Oeste 45 Oeste 0 -- -- 83
2019-11-23 00:00:00 13.8 25 Oeste 41 Oeste 0 -- -- 81
2019-11-22 23:00:00 14 30 Oeste 47 Oeste 0 -- -- 82
2019-11-22 22:00:00 13.8 22 Oeste 32 Oeste 0 -- -- 83
2019-11-22 21:00:00 13.4 19 Oeste 33 Oeste 0 -- -- 88
2019-11-22 20:00:00 14.9 26 Oeste 99 Sudoeste 1 -- -- 89
2019-11-22 19:00:00 16.4 39 Oeste 74 Oeste 4 -- -- 93
2019-11-22 18:00:00 16.3 46 Oeste 70 Oeste 1.6 -- -- 92
2019-11-22 17:00:00 16.4 39 Oeste 65 Oeste 1.2 -- -- 89
2019-11-22 16:00:00 16.9 35 Sudoeste 69 Sudoeste 0.6 -- -- 84
2019-11-22 15:00:00 16.8 31 Sudoeste 49 Sudoeste 0.2 -- -- 88
2019-11-22 14:00:00 16.1 24 Sudoeste 50 Sudoeste 0.4 -- -- 88
2019-11-22 13:00:00 16.8 26 Sudoeste 45 Sudoeste 0.2 -- -- 84
2019-11-22 12:00:00 16.5 19 Sudoeste 37 Sudoeste 0 -- -- 86
2019-11-22 11:00:00 15.8 17 Sudoeste 30 Sudoeste 0.8 -- -- 92
2019-11-22 10:00:00 14.7 8 Sudoeste 15 Sudoeste 0.2 -- -- 94
2019-11-22 09:00:00 13.8 5 Sudeste 12 Sudeste 0.4 -- -- 95
2019-11-22 08:00:00 13.6 3 Sur 9 Este 9 -- -- 95
2019-11-22 07:00:00 13.7 3 Nordeste 10 Noroeste 2.4 -- -- 95
2019-11-22 06:00:00 13.9 5 Oeste 10 Oeste 0 -- -- 95
2019-11-22 05:00:00 13.7 5 Noroeste 10 Oeste 1.6 -- -- 94
2019-11-22 04:00:00 13.5 0 Calma 4 Sudoeste 0.4 -- -- 93
2019-11-22 03:00:00 13.3 2 Sur 8 Sur 0.6 -- -- 92
2019-11-22 02:00:00 13.2 3 Sur 8 Sur 0.2 -- -- 91
2019-11-22 01:00:00 13.3 3 Sur 14 Sudoeste 0.4 -- -- 89
2019-11-22 00:00:00 13.2 8 Sudoeste 17 Sudoeste 0 -- -- 86
2019-11-21 23:00:00 13.4 9 Sudoeste 18 Sudoeste 0 -- -- 85
2019-11-21 22:00:00 13.5 6 Sudoeste 21 Oeste 0 -- -- 86
2019-11-21 21:00:00 13.6 6 Sudoeste 11 Sudoeste 0 -- -- 86
2019-11-21 20:00:00 13.6 5 Sudoeste 10 Oeste 0.2 -- -- 88
2019-11-21 19:00:00 13.6 4 Norte 11 Oeste 0 -- -- 89
2019-11-21 18:00:00 13.6 4 Norte 27 Sudoeste 0 -- -- 90
2019-11-21 17:00:00 14.4 10 Oeste 23 Oeste 5.2 -- -- 91
2019-11-21 16:00:00 15.1 14 Oeste 32 Sudoeste 0 -- -- 83
2019-11-21 15:00:00 16.4 21 Sudoeste 37 Oeste 0 -- -- 73
2019-11-21 14:00:00 16 14 Sudoeste 27 Sudoeste 0.2 -- -- 75
2019-11-21 13:00:00 15.9 14 Sudoeste 27 Sudoeste 0.2 -- -- 78
2019-11-21 12:00:00 15.6 11 Sudoeste 19 Oeste 0 -- -- 79
2019-11-21 11:00:00 13.9 5 Sudeste 12 Sudoeste 0 -- -- 88
2019-11-21 10:00:00 12.8 7 Sur 14 Sur 0.4 -- -- 89
2019-11-21 09:00:00 12.5 7 Sur 14 Sur 0 -- -- 88
2019-11-21 08:00:00 -- -- -- -- -- -- -- -- --
2019-11-21 07:00:00 -- -- -- -- -- -- -- -- --
2019-11-21 06:00:00 -- -- -- -- -- -- -- -- --
2019-11-21 05:00:00 -- -- -- -- -- -- -- -- --
2019-11-21 04:00:00 -- -- -- -- -- -- -- -- --
2019-11-21 03:00:00 -- -- -- -- -- -- -- -- --
2019-11-21 02:00:00 -- -- -- -- -- -- -- -- --
2019-11-21 01:00:00 -- -- -- -- -- -- -- -- --
2019-11-21 00:00:00 -- -- -- -- -- -- -- -- --
2019-11-20 23:00:00 -- -- -- -- -- -- -- -- --
2019-11-20 22:00:00 -- -- -- -- -- -- -- -- --
2019-11-20 21:00:00 -- -- -- -- -- -- -- -- --
2019-11-20 20:00:00 -- -- -- -- -- -- -- -- --
2019-11-20 19:00:00 11.5 3 Sudoeste 10 Sudoeste 0 -- -- 85
2019-11-20 18:00:00 11.7 3 Nordeste 44 Oeste 0 -- -- 87
2019-11-20 17:00:00 12 8 Sudeste 15 Sudeste 0 -- -- 88
2019-11-20 16:00:00 12.1 4 Noroeste 18 Sudeste 0.2 -- -- 85
2019-11-20 15:00:00 11.8 9 Sudeste 18 Sudeste 0.8 -- -- 83
2019-11-20 14:00:00 11.7 4 Sudeste 15 Sudeste 0.2 -- -- 81
2019-11-20 13:00:00 11.4 8 Sudeste 24 Este 0 -- -- 76
2019-11-20 12:00:00 10.4 10 Sudeste 18 Sudeste 0.2 -- -- 74
2019-11-20 11:00:00 10.6 8 Sudeste 13 Sudeste 0.6 -- -- 74
2019-11-20 10:00:00 11.1 6 Sudeste 9 Sur 0 -- -- 65
2019-11-20 09:00:00 10 5 Sur 10 Sudeste 0 -- -- 67
2019-11-20 08:00:00 8.7 2 Este 10 Este 0 -- -- 75
2019-11-20 07:00:00 9.2 5 Este 11 Este 0 -- -- 71
2019-11-20 06:00:00 8.6 4 Este 6 Sudeste 0 -- -- 76
2019-11-20 05:00:00 8.6 2 Sur 3 Sudeste 0 -- -- 77
2019-11-20 04:00:00 8.9 2 Sur 5 Sur 0 -- -- 74
2019-11-20 03:00:00 9.1 2 Noroeste 6 Sudeste 0 -- -- 73
2019-11-20 02:00:00 9.9 5 Sudeste 9 Sudeste 0 -- -- 70
2019-11-20 01:00:00 10.3 7 Sudeste 10 Este 0 -- -- 70
2019-11-20 00:00:00 10.6 5 Sudeste 9 Sudeste 0 -- -- 70
2019-11-19 23:00:00 11.5 5 Sudeste 9 Este 0 -- -- 66
2019-11-19 22:00:00 11.7 6 Sudeste 10 Sudeste 0 -- -- 66
2019-11-19 21:00:00 11.6 4 Sudeste 8 Este 0 -- -- 68
2019-11-19 20:00:00 12.2 3 Este 7 Este 0 -- -- 65
2019-11-19 19:00:00 12.5 3 Este 7 Nordeste 0 -- -- 64
2019-11-19 18:00:00 13.1 2 Nordeste 9 Norte 0 -- -- 62
2019-11-19 17:00:00 14.3 4 Norte 10 Norte 0 -- -- 56
2019-11-19 16:00:00 14.5 5 Norte 10 Noroeste 0 -- -- 57
2019-11-19 15:00:00 14 4 Norte 10 Noroeste 0 -- -- 61
2019-11-19 14:00:00 13.3 4 Noroeste 10 Noroeste 0 -- -- 64
2019-11-19 13:00:00 11.9 4 Noroeste 8 Oeste 0 -- -- 75
2019-11-19 12:00:00 10.3 4 Noroeste 8 Oeste 0 -- -- 81
2019-11-19 11:00:00 11 4 Noroeste 7 Este 0 -- -- 78
2019-11-19 10:00:00 11.2 4 Sudeste 9 Sudeste 0 -- -- 67
2019-11-19 09:00:00 8.4 3 Sudeste 6 Sudeste 0 -- -- 79
2019-11-19 08:00:00 8 0 Calma 5 Sudeste 0 -- -- 78
2019-11-19 07:00:00 8.2 2 Sudeste 4 Sudeste 0 -- -- 80
2019-11-19 06:00:00 8.4 0 Calma 2 Sudeste 0 -- -- 80
2019-11-19 05:00:00 8.9 0 Calma 6 Sudeste 0 -- -- 77
2019-11-19 04:00:00 9.1 5 Sudeste 8 Este 0 -- -- 76
2019-11-19 03:00:00 9 5 Sudeste 10 Sudeste 0 -- -- 75
2019-11-19 02:00:00 8.6 7 Sudeste 10 Sudeste 0 -- -- 78
2019-11-19 01:00:00 9.2 0 Calma 5 Sur 0 -- -- 76
2019-11-19 00:00:00 9.7 3 Sur 8 Sur 0 -- -- 73
2019-11-18 23:00:00 9.9 6 Sudeste 8 Sudeste 0 -- -- 74
2019-11-18 22:00:00 10.3 4 Sur 9 Sudeste 0 -- -- 73
2019-11-18 21:00:00 10.4 4 Sur 8 Sudeste 0 -- -- 74
2019-11-18 20:00:00 10.9 4 Sudeste 7 Sur 0 -- -- 73
2019-11-18 19:00:00 11.7 3 Sur 5 Sur 0 -- -- 71
2019-11-18 18:00:00 13.4 3 Sudoeste 8 Oeste 0 -- -- 64
2019-11-18 17:00:00 13.7 4 Oeste 10 Oeste 0 -- -- 64
2019-11-18 16:00:00 13.6 5 Oeste 14 Oeste 0 -- -- 64
2019-11-18 15:00:00 13 5 Noroeste 19 Oeste 0 -- -- 67
2019-11-18 14:00:00 12.1 6 Noroeste 16 Noroeste 0 -- -- 70
2019-11-18 13:00:00 11.2 6 Noroeste 15 Oeste 0 -- -- 71
2019-11-18 12:00:00 10.2 6 Noroeste 18 Oeste 0 -- -- 74
2019-11-18 11:00:00 9.8 12 Oeste 21 Oeste 0 -- -- 77
2019-11-18 10:00:00 8.6 11 Oeste 16 Oeste 0 -- -- 84
2019-11-18 09:00:00 7.3 5 Oeste 13 Oeste 0 -- -- 90
2019-11-18 08:00:00 7.3 3 Oeste 13 Noroeste 0 -- -- 91
2019-11-18 07:00:00 8.3 8 Oeste 27 Oeste 0 -- -- 91
2019-11-18 06:00:00 10 17 Oeste 32 Oeste 0 -- -- 90
2019-11-18 05:00:00 11 24 Oeste 42 Oeste 0.2 -- -- 89
2019-11-18 04:00:00 13 25 Oeste 67 Oeste 0.6 -- -- 93
2019-11-18 03:00:00 13.9 44 Oeste 66 Oeste 0.6 -- -- 90
2019-11-18 02:00:00 13.1 19 Oeste 46 Oeste 7.8 -- -- 94
2019-11-18 01:00:00 13.4 30 Oeste 48 Oeste 0.8 -- -- 92
2019-11-18 00:00:00 13.6 31 Oeste 48 Oeste 0 -- -- 88
2019-11-17 23:00:00 13.8 28 Oeste 44 Oeste 0 -- -- 89
2019-11-17 22:00:00 14 26 Oeste 46 Oeste 0 -- -- 87
2019-11-17 21:00:00 14.1 28 Oeste 44 Oeste 0.4 -- -- 88
2019-11-17 20:00:00 14.2 23 Oeste 40 Oeste 0 -- -- 84
2019-11-17 19:00:00 13.8 18 Sudoeste 35 Sudoeste 0 -- -- 84
2019-11-17 18:00:00 13.7 17 Sudoeste 31 Sudoeste 0 -- -- 82
2019-11-17 17:00:00 14.1 20 Oeste 36 Oeste 0 -- -- 80
2019-11-17 16:00:00 14.3 23 Oeste 43 Oeste 0 -- -- 79
2019-11-17 15:00:00 13.7 28 Oeste 39 Oeste 0 -- -- 82
2019-11-17 14:00:00 11.7 22 Oeste 34 Oeste 0 -- -- 87
2019-11-17 13:00:00 10.1 14 Oeste 21 Oeste 0 -- -- 89
2019-11-17 12:00:00 9.5 10 Oeste 25 Sudoeste 0 -- -- 87
2019-11-17 11:00:00 8.7 14 Oeste 28 Oeste 0 -- -- 84
2019-11-17 10:00:00 9.3 14 Oeste 21 Oeste 0 -- -- 72
2019-11-17 09:00:00 8.3 6 Sudoeste 13 Sudoeste 0 -- -- 71
2019-11-17 08:00:00 7.6 6 Sudoeste 14 Sur 0 -- -- 71
2019-11-17 07:00:00 7.1 6 Sur 12 Sudoeste 0 -- -- 72
2019-11-17 06:00:00 6.8 6 Sur 16 Sudoeste 0 -- -- 73
2019-11-17 05:00:00 7 8 Sur 14 Sur 0 -- -- 72
2019-11-17 04:00:00 7.3 6 Sur 13 Sur 0 -- -- 69
2019-11-17 03:00:00 7.5 5 Sur 12 Sur 0 -- -- 67
2019-11-17 02:00:00 7.7 6 Sur 13 Sur 0 -- -- 67
2019-11-17 01:00:00 7.8 5 Sur 12 Sur 0 -- -- 67
2019-11-17 00:00:00 8 6 Sur 15 Sur 0 -- -- 67
2019-11-16 23:00:00 8.3 8 Sur 16 Sur 0 -- -- 66
2019-11-16 22:00:00 8.7 6 Sur 16 Sur 0 -- -- 60
2019-11-16 21:00:00 9.1 6 Sur 13 Sur 0 -- -- 57
2019-11-16 20:00:00 9 6 Sur 12 Sur 0 -- -- 59
2019-11-16 19:00:00 9.8 5 Sur 11 Sudoeste 0 -- -- 57
2019-11-16 18:00:00 11.9 8 Sudoeste 20 Oeste 0 -- -- 49
2019-11-16 17:00:00 12.8 13 Noroeste 22 Noroeste 0 -- -- 43
2019-11-16 16:00:00 12.9 12 Oeste 20 Noroeste 0 -- -- 43
2019-11-16 15:00:00 12.4 8 Oeste 15 Oeste 0 -- -- 47
2019-11-16 14:00:00 11.2 4 Noroeste 13 Oeste 0 -- -- 52
2019-11-16 13:00:00 9.9 6 Noroeste 15 Noroeste 0 -- -- 57
2019-11-16 12:00:00 8.8 8 Noroeste 15 Oeste 0 -- -- 60
2019-11-16 11:00:00 7.7 3 Oeste 8 Oeste 0 -- -- 62
2019-11-16 10:00:00 6.8 2 Oeste 6 Oeste 0 -- -- 67
2019-11-16 09:00:00 5.2 3 Sur 8 Sur 0 -- -- 71
2019-11-16 08:00:00 4.2 4 Sur 5 Sur 0 -- -- 74
2019-11-16 07:00:00 4.3 2 Sudeste 5 Sur 0 -- -- 74
2019-11-16 06:00:00 4.9 0 Calma 5 Sur 0 -- -- 72
2019-11-16 05:00:00 5.3 3 Sur 8 Sur 0 -- -- 70
2019-11-16 04:00:00 5.3 4 Sur 8 Sur 0 -- -- 70
2019-11-16 03:00:00 5.9 4 Sudoeste 8 Sur 0 -- -- 68
2019-11-16 02:00:00 6.4 3 Sudoeste 6 Sudoeste 0 -- -- 67
2019-11-16 01:00:00 6.6 4 Sur 9 Sudoeste 0 -- -- 67
2019-11-16 00:00:00 7.2 4 Sudoeste 11 Sudoeste 0 -- -- 65